Time;durP1;ratioP1;P1;durP2;ratioP2;P2;SDS_P1;SDS_P2;PMS_P1;PMS_P2;Temp;Humidity;BMP_temperature;BMP_pressure;BME280_temperature;BME280_humidity;BME280_pressure;Samples;Min_cycle;Max_cycle;Signal;HPM_P1;HPM_P2
2023/12/30 00:01:58;;;;;;;6.97;2.35;;;;;;;;;;5819053;28;20077;-79
2023/12/30 00:04:49;;;;;;;1.92;1.63;;;;;;;;;;5819913;28;20061;-78
2023/12/30 00:07:40;;;;;;;7.93;4.50;;;;;;;;;;5818330;28;20054;-78
2023/12/30 00:10:30;;;;;;;2.83;1.27;;;;;;;;;;5834555;28;20392;-78
2023/12/30 00:13:21;;;;;;;4.20;2.58;;;;;;;;;;5834461;28;20057;-78
2023/12/30 00:16:13;;;;;;;6.53;3.55;;;;;;;;;;5834398;28;20050;-78
2023/12/30 00:19:04;;;;;;;10.23;4.63;;;;;;;;;;5818134;28;20054;-78
2023/12/30 00:21:55;;;;;;;3.90;2.65;;;;;;;;;;5818846;28;20137;-78
2023/12/30 00:24:45;;;;;;;4.75;2.80;;;;;;;;;;5819413;28;20061;-78
2023/12/30 00:27:37;;;;;;;2.63;2.17;;;;;;;;;;5834169;28;20057;-78
2023/12/30 00:30:27;;;;;;;1.88;1.13;;;;;;;;;;5834231;28;20169;-80
2023/12/30 00:33:18;;;;;;;0.85;0.75;;;;;;;;;;5834171;28;20046;-78
2023/12/30 00:36:09;;;;;;;3.08;1.52;;;;;;;;;;5833118;28;20720;-78
2023/12/30 00:39:00;;;;;;;1.27;1.10;;;;;;;;;;5819789;28;20376;-79
2023/12/30 00:41:52;;;;;;;2.05;1.85;;;;;;;;;;5832947;28;20041;-78
2023/12/30 00:44:43;;;;;;;2.65;1.05;;;;;;;;;;5840676;28;20499;-78
2023/12/30 00:47:33;;;;;;;3.25;1.83;;;;;;;;;;5840364;28;20069;-78
2023/12/30 00:50:24;;;;;;;1.63;1.05;;;;;;;;;;5837125;28;20054;-78
2023/12/30 00:53:15;;;;;;;3.80;1.42;;;;;;;;;;5817777;28;20105;-78
2023/12/30 00:56:06;;;;;;;2.33;1.60;;;;;;;;;;5817241;28;20050;-78
2023/12/30 00:58:57;;;;;;;1.23;1.08;;;;;;;;;;5818022;28;20046;-78
2023/12/30 01:01:48;;;;;;;3.33;1.48;;;;;;;;;;5836886;28;20038;-78
2023/12/30 01:04:39;;;;;;;2.05;1.48;;;;;;;;;;5827778;28;20094;-80
2023/12/30 01:07:30;;;;;;;1.80;1.30;;;;;;;;;;5841583;28;20046;-78
2023/12/30 01:10:21;;;;;;;2.60;1.38;;;;;;;;;;5818630;28;20114;-78
2023/12/30 01:13:12;;;;;;;1.33;1.17;;;;;;;;;;5817336;28;20412;-78
2023/12/30 01:16:06;;;;;;;2.00;1.48;;;;;;;;;;5818684;28;20132;-78
2023/12/30 01:18:58;;;;;;;1.02;0.90;;;;;;;;;;5818841;28;20181;-79
2023/12/30 01:21:48;;;;;;;2.35;1.33;;;;;;;;;;5817126;28;20042;-79
2023/12/30 01:24:39;;;;;;;0.93;0.93;;;;;;;;;;5816875;28;20046;-78
2023/12/30 01:27:30;;;;;;;1.48;1.38;;;;;;;;;;5816842;28;20042;-78
2023/12/30 01:30:21;;;;;;;1.17;1.08;;;;;;;;;;5816757;28;20389;-78
2023/12/30 01:33:11;;;;;;;1.27;1.08;;;;;;;;;;5816367;28;20054;-78
2023/12/30 01:36:03;;;;;;;0.93;0.75;;;;;;;;;;5816733;28;20058;-78
2023/12/30 01:38:54;;;;;;;2.75;1.58;;;;;;;;;;5833128;28;20050;-78
2023/12/30 01:41:45;;;;;;;1.15;1.05;;;;;;;;;;5817927;28;20042;-79
2023/12/30 01:44:36;;;;;;;2.67;1.25;;;;;;;;;;5832542;28;20449;-79
2023/12/30 01:47:27;;;;;;;2.85;1.80;;;;;;;;;;5817721;28;20497;-78
2023/12/30 01:50:18;;;;;;;0.93;0.88;;;;;;;;;;5832299;28;20064;-78
2023/12/30 01:53:10;;;;;;;1.42;1.33;;;;;;;;;;5817478;28;20054;-78
2023/12/30 01:56:01;;;;;;;0.75;0.57;;;;;;;;;;5816096;28;20431;-78
2023/12/30 01:58:52;;;;;;;1.10;1.00;;;;;;;;;;5816521;28;20049;-78
2023/12/30 02:01:45;;;;;;;2.25;1.73;;;;;;;;;;5815771;28;20421;-78
2023/12/30 02:04:38;;;;;;;2.15;0.95;;;;;;;;;;5799912;28;20042;-79
2023/12/30 02:07:28;;;;;;;0.82;0.80;;;;;;;;;;5815755;28;20053;-78
2023/12/30 02:10:19;;;;;;;2.40;1.73;;;;;;;;;;5815967;28;20544;-78
2023/12/30 02:13:11;;;;;;;2.85;2.28;;;;;;;;;;5815823;28;20050;-78
2023/12/30 02:16:02;;;;;;;0.60;0.60;;;;;;;;;;5817216;28;20058;-78
2023/12/30 02:18:52;;;;;;;1.20;1.10;;;;;;;;;;5816165;28;20093;-78
2023/12/30 02:21:44;;;;;;;1.02;1.02;;;;;;;;;;5817016;28;20049;-78
2023/12/30 02:24:35;;;;;;;1.30;1.20;;;;;;;;;;5815674;28;20070;-78
2023/12/30 02:27:26;;;;;;;1.42;1.33;;;;;;;;;;5815646;28;20038;-78
2023/12/30 02:30:17;;;;;;;0.95;0.70;;;;;;;;;;5816810;28;20461;-78
2023/12/30 02:33:08;;;;;;;2.40;1.63;;;;;;;;;;5815328;28;20057;-78
2023/12/30 02:35:59;;;;;;;1.17;1.08;;;;;;;;;;5815831;28;20058;-78
2023/12/30 02:38:50;;;;;;;1.50;1.25;;;;;;;;;;5815663;28;20042;-78
2023/12/30 02:41:41;;;;;;;1.50;0.98;;;;;;;;;;5815482;28;20061;-78
2023/12/30 02:44:32;;;;;;;1.02;0.85;;;;;;;;;;5815576;28;20042;-78
2023/12/30 02:47:22;;;;;;;0.95;0.93;;;;;;;;;;5816739;28;20503;-78
2023/12/30 02:50:13;;;;;;;2.92;1.10;;;;;;;;;;5815369;28;20058;-78
2023/12/30 02:53:04;;;;;;;1.08;0.98;;;;;;;;;;5816570;28;20475;-78
2023/12/30 02:55:55;;;;;;;1.73;1.30;;;;;;;;;;5817145;28;20046;-78
2023/12/30 02:58:52;;;;;;;1.02;1.00;;;;;;;;;;5814667;28;20049;-79
2023/12/30 03:01:43;;;;;;;1.30;1.20;;;;;;;;;;5815059;28;20042;-78
2023/12/30 03:04:34;;;;;;;4.80;1.45;;;;;;;;;;5815145;28;20079;-78
2023/12/30 03:07:25;;;;;;;0.63;0.63;;;;;;;;;;5815412;28;20147;-78
2023/12/30 03:10:16;;;;;;;2.05;1.50;;;;;;;;;;5814734;28;20423;-78
2023/12/30 03:13:07;;;;;;;0.80;0.80;;;;;;;;;;5816361;28;20098;-78
2023/12/30 03:15:58;;;;;;;1.60;1.08;;;;;;;;;;5815419;28;20060;-78
2023/12/30 03:18:49;;;;;;;2.08;1.10;;;;;;;;;;5814842;28;20042;-78
2023/12/30 03:21:40;;;;;;;2.38;1.48;;;;;;;;;;5814980;28;20495;-78
2023/12/30 03:24:31;;;;;;;1.00;0.95;;;;;;;;;;5814741;28;20049;-78
2023/12/30 03:27:21;;;;;;;0.60;0.60;;;;;;;;;;5816076;28;20042;-78
2023/12/30 03:30:13;;;;;;;1.33;0.85;;;;;;;;;;5816359;28;20073;-78
2023/12/30 03:33:03;;;;;;;6.72;0.52;;;;;;;;;;5815928;28;20133;-78
2023/12/30 03:35:55;;;;;;;1.30;0.82;;;;;;;;;;5816679;28;20523;-78
2023/12/30 03:38:52;;;;;;;1.88;1.35;;;;;;;;;;5816075;28;20046;-78
2023/12/30 03:41:42;;;;;;;0.93;0.80;;;;;;;;;;5814769;28;20049;-78
2023/12/30 03:44:33;;;;;;;2.35;2.03;;;;;;;;;;5830951;28;20053;-78
2023/12/30 03:47:24;;;;;;;1.83;1.17;;;;;;;;;;5815983;28;20046;-78
2023/12/30 03:50:15;;;;;;;0.50;0.50;;;;;;;;;;5815831;28;20097;-78
2023/12/30 03:53:06;;;;;;;6.82;1.13;;;;;;;;;;5830833;28;20527;-78
2023/12/30 03:55:56;;;;;;;1.77;1.13;;;;;;;;;;5831241;28;20053;-78
2023/12/30 03:58:47;;;;;;;1.02;0.90;;;;;;;;;;5814590;28;20038;-78
2023/12/30 04:01:42;;;;;;;1.35;1.15;;;;;;;;;;5814367;28;20039;-78
2023/12/30 04:04:33;;;;;;;1.27;0.93;;;;;;;;;;5798595;28;20124;-78
2023/12/30 04:07:24;;;;;;;0.95;0.80;;;;;;;;;;5815774;28;20048;-78
2023/12/30 04:10:17;;;;;;;0.80;0.80;;;;;;;;;;5814360;28;20058;-78
2023/12/30 04:13:09;;;;;;;0.52;0.52;;;;;;;;;;5818093;28;20061;-78
2023/12/30 04:16:00;;;;;;;1.30;1.00;;;;;;;;;;5818915;28;20065;-78
2023/12/30 04:18:51;;;;;;;0.70;0.70;;;;;;;;;;5820085;28;20057;-78
2023/12/30 04:21:42;;;;;;;2.17;1.35;;;;;;;;;;5819514;28;20469;-78
2023/12/30 04:24:32;;;;;;;0.65;0.45;;;;;;;;;;5819630;28;20042;-78
2023/12/30 04:27:23;;;;;;;1.15;1.05;;;;;;;;;;5818088;28;20046;-78
2023/12/30 04:30:14;;;;;;;0.77;0.77;;;;;;;;;;5817979;28;20435;-78
2023/12/30 04:33:06;;;;;;;0.40;0.40;;;;;;;;;;5817993;28;20065;-78
2023/12/30 04:35:57;;;;;;;0.93;0.85;;;;;;;;;;5818380;28;20054;-78
2023/12/30 04:38:48;;;;;;;3.40;1.70;;;;;;;;;;5818055;28;20519;-78
2023/12/30 04:41:39;;;;;;;0.63;0.60;;;;;;;;;;5817727;28;20046;-78
2023/12/30 04:44:29;;;;;;;0.73;0.60;;;;;;;;;;5817833;28;20057;-78
2023/12/30 04:47:20;;;;;;;0.43;0.43;;;;;;;;;;5819008;28;20053;-78
2023/12/30 04:50:11;;;;;;;1.45;0.65;;;;;;;;;;5817783;28;20054;-78
2023/12/30 04:53:02;;;;;;;1.70;0.65;;;;;;;;;;5817586;28;20057;-78
2023/12/30 04:55:53;;;;;;;2.95;0.73;;;;;;;;;;5834023;28;20050;-78
2023/12/30 04:58:44;;;;;;;1.55;1.00;;;;;;;;;;5817719;28;20042;-78
2023/12/30 05:01:36;;;;;;;1.42;0.88;;;;;;;;;;5817196;28;20043;-78
2023/12/30 05:04:26;;;;;;;1.27;1.08;;;;;;;;;;5817323;28;20048;-78
2023/12/30 05:07:17;;;;;;;0.50;0.50;;;;;;;;;;5817192;28;20149;-78
2023/12/30 05:10:10;;;;;;;0.80;0.60;;;;;;;;;;5817238;28;20403;-78
2023/12/30 05:13:01;;;;;;;0.57;0.50;;;;;;;;;;5818574;28;20420;-78
2023/12/30 05:15:52;;;;;;;0.75;0.65;;;;;;;;;;5818829;28;20077;-81
2023/12/30 05:18:43;;;;;;;1.00;0.45;;;;;;;;;;5817147;28;20046;-78
2023/12/30 05:21:34;;;;;;;1.27;0.90;;;;;;;;;;5817382;28;20046;-79
2023/12/30 05:24:27;;;;;;;0.70;0.70;;;;;;;;;;5820622;28;20100;-78
2023/12/30 05:27:18;;;;;;;2.30;0.80;;;;;;;;;;5817247;28;20050;-79
2023/12/30 05:30:09;;;;;;;1.20;0.63;;;;;;;;;;5816597;28;20049;-78
2023/12/30 05:33:00;;;;;;;1.05;0.80;;;;;;;;;;5817099;28;20129;-78
2023/12/30 05:35:51;;;;;;;2.25;0.70;;;;;;;;;;5831886;28;20151;-79
2023/12/30 05:38:42;;;;;;;0.40;0.40;;;;;;;;;;5841253;28;20042;-78
2023/12/30 05:41:33;;;;;;;1.50;0.73;;;;;;;;;;5840606;28;20042;-78
2023/12/30 05:44:23;;;;;;;0.90;0.90;;;;;;;;;;5836190;28;20046;-78
2023/12/30 05:47:14;;;;;;;0.40;0.40;;;;;;;;;;5832676;28;20053;-78
2023/12/30 05:50:06;;;;;;;0.93;0.93;;;;;;;;;;5817710;28;20046;-78
2023/12/30 05:52:57;;;;;;;1.55;1.10;;;;;;;;;;5832895;28;20043;-78
2023/12/30 05:55:48;;;;;;;2.55;1.67;;;;;;;;;;5832467;28;20042;-78
2023/12/30 05:58:39;;;;;;;1.48;1.20;;;;;;;;;;5817637;28;20057;-78
2023/12/30 06:01:29;;;;;;;0.50;0.50;;;;;;;;;;5832355;28;20053;-80
2023/12/30 06:04:20;;;;;;;0.65;0.65;;;;;;;;;;5816159;28;20062;-78
2023/12/30 06:07:11;;;;;;;1.05;0.73;;;;;;;;;;5832031;28;20077;-80
2023/12/30 06:10:02;;;;;;;3.03;0.77;;;;;;;;;;5817160;28;20053;-78
2023/12/30 06:12:53;;;;;;;1.50;0.80;;;;;;;;;;5816411;28;20080;-79
2023/12/30 06:15:49;;;;;;;0.40;0.40;;;;;;;;;;5831993;28;20057;-80
2023/12/30 06:18:40;;;;;;;0.63;0.63;;;;;;;;;;5831749;28;20046;-78
2023/12/30 06:21:31;;;;;;;1.67;0.88;;;;;;;;;;5815729;28;20090;-80
2023/12/30 06:24:26;;;;;;;0.50;0.50;;;;;;;;;;5815763;28;20054;-79
2023/12/30 06:27:19;;;;;;;3.78;1.52;;;;;;;;;;5831350;28;20047;-78
2023/12/30 06:30:10;;;;;;;1.05;0.45;;;;;;;;;;5831131;28;20042;-78
2023/12/30 06:33:06;;;;;;;1.00;0.68;;;;;;;;;;5817007;28;20054;-78
2023/12/30 06:35:58;;;;;;;1.23;1.13;;;;;;;;;;5831608;28;20050;-78
2023/12/30 06:38:50;;;;;;;4.38;1.33;;;;;;;;;;5815554;28;20046;-78
2023/12/30 06:41:41;;;;;;;1.08;0.85;;;;;;;;;;5816742;28;20049;-78
2023/12/30 06:44:32;;;;;;;1.13;0.93;;;;;;;;;;5831730;28;20046;-79
2023/12/30 06:47:23;;;;;;;0.60;0.60;;;;;;;;;;5815468;28;20061;-81
2023/12/30 06:50:15;;;;;;;0.93;0.65;;;;;;;;;;5831604;28;20090;-78
2023/12/30 06:53:10;;;;;;;0.63;0.50;;;;;;;;;;5816825;28;20161;-78
2023/12/30 06:56:01;;;;;;;3.58;0.60;;;;;;;;;;5831431;28;20058;-78
2023/12/30 06:58:52;;;;;;;1.23;0.93;;;;;;;;;;5840051;28;20053;-78
2023/12/30 07:01:43;;;;;;;3.35;1.65;;;;;;;;;;5815082;28;20570;-80
2023/12/30 07:04:34;;;;;;;1.60;1.50;;;;;;;;;;5799211;28;20065;-78
2023/12/30 07:07:24;;;;;;;2.88;1.58;;;;;;;;;;5814994;28;20047;-78
2023/12/30 07:10:15;;;;;;;0.80;0.80;;;;;;;;;;5814978;28;20051;-79
2023/12/30 07:13:06;;;;;;;0.40;0.40;;;;;;;;;;5815044;28;20050;-78
2023/12/30 07:15:57;;;;;;;0.70;0.70;;;;;;;;;;5799453;28;20050;-78
2023/12/30 07:18:48;;;;;;;1.27;0.93;;;;;;;;;;5814994;28;20053;-80
2023/12/30 07:21:39;;;;;;;0.70;0.47;;;;;;;;;;5815057;28;20504;-79
2023/12/30 07:24:29;;;;;;;1.40;1.30;;;;;;;;;;5815073;28;20519;-79
2023/12/30 07:27:20;;;;;;;1.35;0.75;;;;;;;;;;5816367;28;20423;-78
2023/12/30 07:30:11;;;;;;;0.77;0.77;;;;;;;;;;5814685;28;20077;-78
2023/12/30 07:33:03;;;;;;;5.55;3.90;;;;;;;;;;5831059;28;20046;-78
2023/12/30 07:35:54;;;;;;;3.45;1.98;;;;;;;;;;5816620;28;20057;-78
2023/12/30 07:38:45;;;;;;;2.47;1.27;;;;;;;;;;5814855;28;20053;-79
2023/12/30 07:41:38;;;;;;;0.40;0.40;;;;;;;;;;5816078;28;20050;-78
2023/12/30 07:44:29;;;;;;;0.90;0.80;;;;;;;;;;5815204;28;20046;-78
2023/12/30 07:47:20;;;;;;;4.20;1.95;;;;;;;;;;5819098;28;20512;-79
2023/12/30 07:50:11;;;;;;;2.17;1.30;;;;;;;;;;5819247;28;20046;-79
2023/12/30 07:53:03;;;;;;;2.90;2.05;;;;;;;;;;5821137;28;20065;-78
2023/12/30 07:55:54;;;;;;;1.10;1.00;;;;;;;;;;5819314;28;20050;-78
2023/12/30 07:58:45;;;;;;;0.98;0.95;;;;;;;;;;5819083;28;20053;-80
2023/12/30 08:01:42;;;;;;;2.92;1.90;;;;;;;;;;5820020;28;20045;-78
2023/12/30 08:04:33;;;;;;;5.60;3.78;;;;;;;;;;5818712;28;20042;-78
2023/12/30 08:07:25;;;;;;;4.43;3.05;;;;;;;;;;5818624;28;20568;-78
2023/12/30 08:10:16;;;;;;;15.30;2.50;;;;;;;;;;5819733;28;20046;-78
2023/12/30 08:13:07;;;;;;;3.05;1.77;;;;;;;;;;5818646;28;20491;-78
2023/12/30 08:15:59;;;;;;;1.00;0.77;;;;;;;;;;5819087;28;20050;-78
2023/12/30 08:18:49;;;;;;;1.48;1.10;;;;;;;;;;5826996;28;20074;-78
2023/12/30 08:21:40;;;;;;;1.85;1.50;;;;;;;;;;5834568;28;20137;-79
2023/12/30 08:24:31;;;;;;;1.38;1.23;;;;;;;;;;5834937;28;20046;-78
2023/12/30 08:27:22;;;;;;;3.30;1.95;;;;;;;;;;5835262;28;20046;-78
2023/12/30 08:30:13;;;;;;;3.05;1.83;;;;;;;;;;5819867;28;20050;-78
2023/12/30 08:33:06;;;;;;;1.33;1.20;;;;;;;;;;5820272;28;20076;-78
2023/12/30 08:35:59;;;;;;;2.10;1.55;;;;;;;;;;5843074;28;20125;-78
2023/12/30 08:38:49;;;;;;;8.80;2.15;;;;;;;;;;5818773;28;20053;-78
2023/12/30 08:41:41;;;;;;;1.13;0.90;;;;;;;;;;5818059;28;20042;-79
2023/12/30 08:44:32;;;;;;;6.82;4.88;;;;;;;;;;5817962;28;20094;-78
2023/12/30 08:47:23;;;;;;;6.07;4.85;;;;;;;;;;5817907;28;20057;-78
2023/12/30 08:50:14;;;;;;;2.03;1.73;;;;;;;;;;5834427;28;20050;-79
2023/12/30 08:53:05;;;;;;;1.67;1.33;;;;;;;;;;5834079;28;20057;-78
2023/12/30 08:55:56;;;;;;;2.10;1.80;;;;;;;;;;5802440;28;20374;-78
2023/12/30 08:58:47;;;;;;;1.83;1.55;;;;;;;;;;5817274;28;20042;-79
2023/12/30 09:01:38;;;;;;;4.65;3.65;;;;;;;;;;5818749;28;20389;-78
2023/12/30 09:04:29;;;;;;;3.95;2.67;;;;;;;;;;5833895;28;20512;-80
2023/12/30 09:07:21;;;;;;;3.03;1.92;;;;;;;;;;5817758;28;20161;-79
2023/12/30 09:10:11;;;;;;;7.63;3.65;;;;;;;;;;5833977;28;20050;-79
2023/12/30 09:13:03;;;;;;;2.03;1.40;;;;;;;;;;5817743;28;20051;-79
2023/12/30 09:15:54;;;;;;;2.67;1.30;;;;;;;;;;5819104;28;20181;-79
2023/12/30 09:18:45;;;;;;;2.58;2.35;;;;;;;;;;5801537;28;20046;-79
2023/12/30 09:21:36;;;;;;;2.65;1.92;;;;;;;;;;5817001;28;20104;-80
2023/12/30 09:24:27;;;;;;;1.55;1.13;;;;;;;;;;5817815;28;20046;-79
2023/12/30 09:27:18;;;;;;;3.38;1.48;;;;;;;;;;5818641;28;20046;-80
2023/12/30 09:30:09;;;;;;;4.15;1.23;;;;;;;;;;5817673;28;20056;-79
2023/12/30 09:33:00;;;;;;;1.70;1.50;;;;;;;;;;5817979;28;20054;-81
2023/12/30 09:35:54;;;;;;;1.67;1.40;;;;;;;;;;5832716;28;20038;-79
2023/12/30 09:38:45;;;;;;;2.80;1.35;;;;;;;;;;5841457;28;20065;-80
2023/12/30 09:41:39;;;;;;;3.92;1.92;;;;;;;;;;5841618;28;20053;-81
2023/12/30 09:44:32;;;;;;;4.13;1.58;;;;;;;;;;5839632;28;20046;-79
2023/12/30 09:47:23;;;;;;;2.78;1.05;;;;;;;;;;5836584;28;20046;-80
2023/12/30 09:50:15;;;;;;;1.20;0.95;;;;;;;;;;5816649;28;20050;-80
2023/12/30 09:53:06;;;;;;;0.35;0.35;;;;;;;;;;5833270;28;20062;-80
2023/12/30 09:55:58;;;;;;;1.60;0.80;;;;;;;;;;5833566;28;20912;-80
2023/12/30 09:58:54;;;;;;;2.45;0.93;;;;;;;;;;5833477;28;20046;-79
2023/12/30 10:01:46;;;;;;;5.72;1.65;;;;;;;;;;5833401;28;20053;-79
2023/12/30 10:04:37;;;;;;;4.78;1.80;;;;;;;;;;5832798;28;20495;-79
2023/12/30 10:07:31;;;;;;;0.88;0.88;;;;;;;;;;5818075;28;20423;-79
2023/12/30 10:10:46;;;;;;;0.90;0.70;;;;;;;;;;5816419;28;20053;-80
2023/12/30 10:13:37;;;;;;;1.80;1.10;;;;;;;;;;5832569;28;20393;-78
2023/12/30 10:16:29;;;;;;;0.75;0.75;;;;;;;;;;5832222;28;20520;-81
2023/12/30 10:19:20;;;;;;;1.48;0.80;;;;;;;;;;5816085;28;20076;-80
2023/12/30 10:22:11;;;;;;;28.33;1.23;;;;;;;;;;5815923;28;20061;-81
2023/12/30 10:25:03;;;;;;;0.43;0.32;;;;;;;;;;5816267;28;20050;-80
2023/12/30 10:27:54;;;;;;;0.30;0.30;;;;;;;;;;5833239;28;20053;-80
2023/12/30 10:30:47;;;;;;;0.93;0.85;;;;;;;;;;5832492;28;20038;-80
2023/12/30 10:33:40;;;;;;;1.13;1.02;;;;;;;;;;5832699;28;20046;-81
2023/12/30 10:36:31;;;;;;;1.00;0.70;;;;;;;;;;5816667;28;20042;-80
2023/12/30 10:39:22;;;;;;;0.50;0.50;;;;;;;;;;5840448;28;20069;-81
2023/12/30 10:42:14;;;;;;;0.75;0.68;;;;;;;;;;5816289;28;20456;-80
2023/12/30 10:45:06;;;;;;;3.70;0.70;;;;;;;;;;5816025;28;20054;-81
2023/12/30 10:47:59;;;;;;;1.08;0.77;;;;;;;;;;5817976;28;20050;-81
2023/12/30 10:50:54;;;;;;;0.35;0.35;;;;;;;;;;5824678;28;20046;-80
2023/12/30 10:53:48;;;;;;;0.50;0.50;;;;;;;;;;5816571;28;20047;-81
2023/12/30 10:56:57;;;;;;;8.25;0.75;;;;;;;;;;5816480;28;20148;-80
2023/12/30 10:59:50;;;;;;;0.63;0.63;;;;;;;;;;5816832;28;20046;-80
2023/12/30 11:02:41;;;;;;;3.03;0.82;;;;;;;;;;5816439;28;20065;-79
2023/12/30 11:05:47;;;;;;;1.55;0.82;;;;;;;;;;5816227;28;20042;-80
2023/12/30 11:08:43;;;;;;;1.90;0.98;;;;;;;;;;5817685;28;20043;-80
2023/12/30 11:11:39;;;;;;;1.42;1.15;;;;;;;;;;5816318;28;20073;-80
2023/12/30 11:14:31;;;;;;;1.48;0.85;;;;;;;;;;5817247;28;20057;-80
2023/12/30 11:17:35;;;;;;;1.65;1.50;;;;;;;;;;5816913;28;20042;-81
2023/12/30 11:20:34;;;;;;;0.70;0.63;;;;;;;;;;5818769;28;20038;-81
2023/12/30 11:23:27;;;;;;;2.47;1.42;;;;;;;;;;5821917;28;20100;-82
2023/12/30 11:26:18;;;;;;;1.23;0.80;;;;;;;;;;5821803;28;20219;-81
2023/12/30 11:29:11;;;;;;;0.50;0.50;;;;;;;;;;5819981;28;20415;-81
2023/12/30 11:32:02;;;;;;;2.17;1.90;;;;;;;;;;5819782;28;20476;-80
2023/12/30 11:34:54;;;;;;;5.68;2.38;;;;;;;;;;5836641;28;20408;-81
2023/12/30 11:37:54;;;;;;;2.75;2.38;;;;;;;;;;5836037;28;20042;-81
2023/12/30 11:40:53;;;;;;;1.00;0.90;;;;;;;;;;5819951;28;20043;-81
2023/12/30 11:43:44;;;;;;;3.10;2.53;;;;;;;;;;5819866;28;20084;-81
2023/12/30 11:46:35;;;;;;;5.25;2.95;;;;;;;;;;5819429;28;20047;-81
2023/12/30 11:49:26;;;;;;;0.88;0.82;;;;;;;;;;5819848;28;20125;-81
2023/12/30 11:52:17;;;;;;;6.38;3.88;;;;;;;;;;5819359;28;20736;-81
2023/12/30 11:55:09;;;;;;;8.57;5.53;;;;;;;;;;5819427;28;20149;-81
2023/12/30 11:58:00;;;;;;;5.28;3.35;;;;;;;;;;5819936;28;20109;-81
2023/12/30 12:00:51;;;;;;;8.30;3.97;;;;;;;;;;5842296;28;20514;-81
2023/12/30 12:03:42;;;;;;;3.95;3.00;;;;;;;;;;5842136;28;20057;-81
2023/12/30 12:06:32;;;;;;;12.25;6.53;;;;;;;;;;5821479;28;20153;-81
2023/12/30 12:09:23;;;;;;;6.45;2.05;;;;;;;;;;5820815;28;20061;-81
2023/12/30 12:12:22;;;;;;;6.00;5.10;;;;;;;;;;5819387;28;20495;-81
2023/12/30 12:15:13;;;;;;;1.27;1.17;;;;;;;;;;5819009;28;20125;-81
2023/12/30 12:18:04;;;;;;;1.42;1.27;;;;;;;;;;5820540;28;20591;-81
2023/12/30 12:20:55;;;;;;;3.42;1.85;;;;;;;;;;5820433;28;20544;-81
2023/12/30 12:23:46;;;;;;;1.45;1.35;;;;;;;;;;5835079;28;20047;-81
2023/12/30 12:26:37;;;;;;;1.77;1.42;;;;;;;;;;5843009;28;20350;-81
2023/12/30 12:29:29;;;;;;;4.38;2.72;;;;;;;;;;5802732;28;20523;-81
2023/12/30 12:32:21;;;;;;;3.88;1.45;;;;;;;;;;5817039;28;20046;-81
2023/12/30 12:35:12;;;;;;;1.08;0.90;;;;;;;;;;5818528;28;20050;-81
2023/12/30 12:38:03;;;;;;;2.30;1.40;;;;;;;;;;5819873;28;20054;-81
2023/12/30 12:40:54;;;;;;;3.08;1.35;;;;;;;;;;5818865;28;20493;-82
2023/12/30 12:43:45;;;;;;;2.78;1.98;;;;;;;;;;5819689;28;20054;-83
2023/12/30 12:46:37;;;;;;;4.10;2.97;;;;;;;;;;5819327;28;20132;-84
2023/12/30 12:49:28;;;;;;;2.42;2.22;;;;;;;;;;5819062;28;20046;-83
2023/12/30 12:52:18;;;;;;;3.38;2.50;;;;;;;;;;5817736;28;20124;-84
2023/12/30 12:55:09;;;;;;;2.28;2.08;;;;;;;;;;5817715;28;20167;-83
2023/12/30 12:58:00;;;;;;;8.70;5.68;;;;;;;;;;5818438;28;20085;-84
2023/12/30 13:00:51;;;;;;;9.05;4.22;;;;;;;;;;5817534;28;20141;-84
2023/12/30 13:03:42;;;;;;;5.85;4.35;;;;;;;;;;5801129;28;20077;-85
2023/12/30 13:06:33;;;;;;;5.47;2.67;;;;;;;;;;5817865;28;20042;-84
2023/12/30 13:09:35;;;;;;;4.68;3.85;;;;;;;;;;5817621;28;20046;-84
2023/12/30 13:12:26;;;;;;;5.07;3.25;;;;;;;;;;5818978;28;20065;-84
2023/12/30 13:15:19;;;;;;;5.43;4.18;;;;;;;;;;5819158;28;20382;-83
2023/12/30 13:18:15;;;;;;;3.60;3.28;;;;;;;;;;5818930;28;20401;-83
2023/12/30 13:21:08;;;;;;;4.82;4.43;;;;;;;;;;5818375;28;20507;-82
2023/12/30 13:23:59;;;;;;;8.00;3.63;;;;;;;;;;5818204;28;20054;-83
2023/12/30 13:26:50;;;;;;;5.45;4.57;;;;;;;;;;5833619;28;20356;-83
2023/12/30 13:29:43;;;;;;;6.03;4.60;;;;;;;;;;5841458;28;20052;-82
2023/12/30 13:32:35;;;;;;;12.35;6.80;;;;;;;;;;5841173;28;20046;-83
2023/12/30 13:35:29;;;;;;;7.63;5.60;;;;;;;;;;5841209;28;20053;-83
2023/12/30 13:38:23;;;;;;;13.02;9.57;;;;;;;;;;5841096;28;20105;-83
2023/12/30 13:41:14;;;;;;;13.50;10.40;;;;;;;;;;5839818;28;20152;-83
2023/12/30 13:44:09;;;;;;;7.38;6.40;;;;;;;;;;5856065;28;20077;-82
2023/12/30 13:47:25;;;;;;;21.48;11.65;;;;;;;;;;5840681;28;20069;-83
2023/12/30 13:53:03;;;;;;;31.75;21.92;;;;;;;;;;5839595;28;20475;-83
2023/12/30 13:56:03;;;;;;;15.25;10.77;;;;;;;;;;5824540;28;20126;-82
2023/12/30 13:58:57;;;;;;;18.80;14.02;;;;;;;;;;5854774;28;20053;-83
2023/12/30 14:01:48;;;;;;;21.05;12.50;;;;;;;;;;5832603;28;20746;-83
2023/12/30 14:04:40;;;;;;;38.08;22.50;;;;;;;;;;5832747;28;20518;-83
2023/12/30 14:07:31;;;;;;;11.48;9.23;;;;;;;;;;5840793;28;20049;-83
2023/12/30 14:10:25;;;;;;;17.75;11.05;;;;;;;;;;5817633;28;20066;-83
2023/12/30 14:13:19;;;;;;;23.75;14.30;;;;;;;;;;5817607;28;20057;-83
2023/12/30 14:16:13;;;;;;;8.00;7.07;;;;;;;;;;5816387;28;20081;-83
2023/12/30 14:19:04;;;;;;;10.50;9.45;;;;;;;;;;5817233;28;20050;-82
2023/12/30 14:21:55;;;;;;;13.77;9.15;;;;;;;;;;5816514;28;20058;-82
2023/12/30 14:24:46;;;;;;;14.52;9.10;;;;;;;;;;5815937;28;20047;-82
2023/12/30 14:27:40;;;;;;;20.00;5.95;;;;;;;;;;5816037;28;20042;-83
2023/12/30 14:30:32;;;;;;;11.73;6.35;;;;;;;;;;5816044;28;20042;-82
2023/12/30 14:33:23;;;;;;;16.35;12.05;;;;;;;;;;5815633;28;20047;-82
2023/12/30 14:36:15;;;;;;;12.05;9.10;;;;;;;;;;5832083;28;20057;-82
2023/12/30 14:39:08;;;;;;;7.57;5.72;;;;;;;;;;5799840;28;20050;-82
2023/12/30 14:42:01;;;;;;;12.32;6.95;;;;;;;;;;5817255;28;20052;-82
2023/12/30 14:44:53;;;;;;;8.23;5.75;;;;;;;;;;5815932;28;20057;-82
2023/12/30 14:47:45;;;;;;;16.08;8.15;;;;;;;;;;5815651;28;20120;-82
2023/12/30 14:50:36;;;;;;;15.00;6.88;;;;;;;;;;5815327;28;20047;-81
2023/12/30 14:53:27;;;;;;;17.58;6.95;;;;;;;;;;5815420;28;20401;-82
2023/12/30 14:56:18;;;;;;;11.68;7.68;;;;;;;;;;5814774;28;20424;-82
2023/12/30 14:59:12;;;;;;;14.68;11.27;;;;;;;;;;5815449;28;20053;-81
2023/12/30 15:02:04;;;;;;;16.85;11.82;;;;;;;;;;5831776;28;20057;-82
2023/12/30 15:04:55;;;;;;;39.03;23.73;;;;;;;;;;5831739;28;20386;-82
2023/12/30 15:07:45;;;;;;;40.42;20.33;;;;;;;;;;5815268;28;20129;-82
2023/12/30 15:10:36;;;;;;;22.42;14.73;;;;;;;;;;5831428;28;20049;-82
2023/12/30 15:13:27;;;;;;;23.77;13.88;;;;;;;;;;5814975;28;20411;-82
2023/12/30 15:16:18;;;;;;;14.32;7.32;;;;;;;;;;5815250;28;20050;-81
2023/12/30 15:19:09;;;;;;;14.77;9.02;;;;;;;;;;5816142;28;20058;-81
2023/12/30 15:22:00;;;;;;;23.10;12.25;;;;;;;;;;5815388;28;20876;-81
2023/12/30 15:24:51;;;;;;;23.42;15.45;;;;;;;;;;5816270;28;20046;-82
2023/12/30 15:27:43;;;;;;;37.30;19.83;;;;;;;;;;5830978;28;20566;-82
2023/12/30 15:30:33;;;;;;;25.98;18.13;;;;;;;;;;5814983;28;20408;-82
2023/12/30 15:33:26;;;;;;;36.35;19.23;;;;;;;;;;5814537;28;20043;-82
2023/12/30 15:36:17;;;;;;;55.40;27.98;;;;;;;;;;5815053;28;20050;-82
2023/12/30 15:39:08;;;;;;;32.15;18.98;;;;;;;;;;5814563;28;20444;-81
2023/12/30 15:41:59;;;;;;;29.48;17.45;;;;;;;;;;5831556;28;20042;-82
2023/12/30 15:44:50;;;;;;;12.70;11.40;;;;;;;;;;5816316;28;20048;-81
2023/12/30 15:47:42;;;;;;;17.20;13.00;;;;;;;;;;5830917;28;20043;-81
2023/12/30 15:50:34;;;;;;;13.18;8.18;;;;;;;;;;5830708;28;20043;-81
2023/12/30 15:53:25;;;;;;;12.43;9.75;;;;;;;;;;5830735;28;20430;-82
2023/12/30 15:56:15;;;;;;;25.90;10.85;;;;;;;;;;5830856;28;20073;-82
2023/12/30 15:59:06;;;;;;;21.10;15.70;;;;;;;;;;5814414;28;20057;-81
2023/12/30 16:01:57;;;;;;;14.05;9.27;;;;;;;;;;5831263;28;20066;-82
2023/12/30 16:04:48;;;;;;;29.33;13.57;;;;;;;;;;5814408;28;20070;-81
2023/12/30 16:07:39;;;;;;;18.00;13.63;;;;;;;;;;5833312;28;20046;-82
2023/12/30 16:10:31;;;;;;;25.83;12.05;;;;;;;;;;5834739;28;20050;-81
2023/12/30 16:13:22;;;;;;;20.67;12.80;;;;;;;;;;5819623;28;20065;-81
2023/12/30 16:16:12;;;;;;;25.90;13.80;;;;;;;;;;5834721;28;20423;-81
2023/12/30 16:19:03;;;;;;;21.05;15.68;;;;;;;;;;5834661;28;20689;-81
2023/12/30 16:21:54;;;;;;;26.58;19.80;;;;;;;;;;5818673;28;20053;-81
2023/12/30 16:24:45;;;;;;;40.30;20.88;;;;;;;;;;5819588;28;20050;-82
2023/12/30 16:27:36;;;;;;;15.60;9.95;;;;;;;;;;5819646;28;20046;-82
2023/12/30 16:30:27;;;;;;;17.45;8.07;;;;;;;;;;5818162;28;20046;-82
2023/12/30 16:33:18;;;;;;;39.75;23.85;;;;;;;;;;5817805;28;20112;-81
2023/12/30 16:36:09;;;;;;;29.58;13.38;;;;;;;;;;5819420;28;20082;-81
2023/12/30 16:39:00;;;;;;;29.73;17.45;;;;;;;;;;5834804;28;20061;-82
2023/12/30 16:41:52;;;;;;;28.70;17.75;;;;;;;;;;5834506;28;20476;-81
2023/12/30 16:44:43;;;;;;;24.85;18.70;;;;;;;;;;5856995;28;20046;-82
2023/12/30 16:47:36;;;;;;;29.27;15.23;;;;;;;;;;5841941;28;20045;-81
2023/12/30 16:50:27;;;;;;;21.73;15.50;;;;;;;;;;5840937;28;20079;-81
2023/12/30 16:53:18;;;;;;;37.78;12.13;;;;;;;;;;5822038;28;20431;-81
2023/12/30 16:56:09;;;;;;;13.45;11.10;;;;;;;;;;5825861;28;20050;-81
2023/12/30 16:59:00;;;;;;;26.58;17.27;;;;;;;;;;5834172;28;20129;-81
2023/12/30 17:01:51;;;;;;;38.08;21.85;;;;;;;;;;5840633;28;20121;-81
2023/12/30 17:04:42;;;;;;;23.10;13.73;;;;;;;;;;5840432;28;20572;-81
2023/12/30 17:07:33;;;;;;;24.98;17.27;;;;;;;;;;5840265;28;20125;-81